createdAt,value
2023-04-16T00:00:49.897Z,101658.55
2023-04-16T00:02:06.354Z,101660.08
2023-04-16T00:03:08.304Z,101657.64
2023-04-16T00:04:10.043Z,101656.54
2023-04-16T00:05:11.715Z,101656.91
2023-04-16T00:06:13.253Z,101654.01
2023-04-16T00:07:14.774Z,101655.16
2023-04-16T00:08:16.301Z,101652.70
2023-04-16T00:09:17.821Z,101653.27
2023-04-16T00:10:19.353Z,101655.98
2023-04-16T00:11:21.491Z,101656.45
2023-04-16T00:12:23.010Z,101657.88
2023-04-16T00:13:26.691Z,101655.38
2023-04-16T00:14:29.092Z,101656.58
2023-04-16T00:15:30.618Z,101659.59
2023-04-16T00:16:32.639Z,101657.45
2023-04-16T00:17:34.326Z,101661.00
2023-04-16T00:18:35.970Z,101657.02
2023-04-16T00:19:38.219Z,101658.33
2023-04-16T00:20:39.668Z,101655.99
2023-04-16T00:21:41.296Z,101656.73
2023-04-16T00:22:42.978Z,101655.16
2023-04-16T00:23:44.907Z,101659.64
2023-04-16T00:24:46.307Z,101656.38
2023-04-16T00:25:47.795Z,101657.48
2023-04-16T00:26:49.505Z,101654.48
2023-04-16T00:27:51.197Z,101657.69
2023-04-16T00:28:52.656Z,101661.16
2023-04-16T00:29:54.183Z,101655.18
2023-04-16T00:30:55.809Z,101654.86
2023-04-16T00:31:57.433Z,101657.17
2023-04-16T00:32:59.683Z,101654.65
2023-04-16T00:34:01.316Z,101656.49
2023-04-16T00:35:03.126Z,101656.06
2023-04-16T00:36:04.979Z,101657.27
2023-04-16T00:37:06.557Z,101658.06
2023-04-16T00:38:08.075Z,101656.95
2023-04-16T00:39:09.858Z,101653.38
2023-04-16T00:40:11.492Z,101656.96
2023-04-16T00:41:13.114Z,101654.70
2023-04-16T00:42:15.039Z,101650.14
2023-04-16T00:43:24.892Z,101654.32
2023-04-16T00:44:26.372Z,101655.46
2023-04-16T00:45:28.874Z,101657.42
2023-04-16T00:46:31.169Z,101656.00
2023-04-16T00:47:33.248Z,101656.66
2023-04-16T00:48:38.411Z,101660.18
2023-04-16T00:49:40.377Z,101656.34
2023-04-16T00:50:42.145Z,101659.88
2023-04-16T00:51:43.718Z,101657.44
2023-04-16T00:52:47.725Z,101656.55
2023-04-16T00:53:50.324Z,101661.09
2023-04-16T00:54:53.386Z,101662.60
2023-04-16T00:55:55.592Z,101662.97
2023-04-16T00:56:58.916Z,101660.50
2023-04-16T00:58:00.396Z,101659.93
2023-04-16T00:59:03.084Z,101662.07
2023-04-16T01:00:05.652Z,101662.04
2023-04-16T01:01:07.257Z,101663.95
2023-04-16T01:02:08.960Z,101665.75
2023-04-16T01:03:10.885Z,101668.31
2023-04-16T01:04:12.830Z,101668.04
2023-04-16T01:05:14.888Z,101668.80
2023-04-16T01:06:17.801Z,101667.73
2023-04-16T01:07:19.513Z,101667.23
2023-04-16T01:08:21.446Z,101667.40
2023-04-16T01:09:22.937Z,101669.90
2023-04-16T01:10:24.422Z,101672.91
2023-04-16T01:11:25.846Z,101670.64
2023-04-16T01:12:27.269Z,101673.88
2023-04-16T01:13:29.073Z,101673.88
2023-04-16T01:14:35.611Z,101674.04
2023-04-16T01:15:37.781Z,101672.88
2023-04-16T01:16:39.338Z,101675.45
2023-04-16T01:17:41.330Z,101671.98
2023-04-16T01:18:43.127Z,101673.44
2023-04-16T01:19:44.603Z,101671.30
2023-04-16T01:20:47.764Z,101672.48
2023-04-16T01:21:49.317Z,101673.30
2023-04-16T01:22:50.807Z,101673.88
2023-04-16T01:23:52.295Z,101669.34
2023-04-16T01:24:53.790Z,101670.63
2023-04-16T01:25:55.409Z,101672.94
2023-04-16T01:26:58.588Z,101670.67
2023-04-16T01:28:00.201Z,101671.08
2023-04-16T01:29:02.345Z,101672.61
2023-04-16T01:30:04.445Z,101670.59
2023-04-16T01:33:10.504Z,101669.81
2023-04-16T01:34:12.036Z,101668.05
2023-04-16T01:35:13.571Z,101668.91
2023-04-16T01:36:15.436Z,101668.34
2023-04-16T01:37:16.999Z,101669.91
2023-04-16T01:38:18.682Z,101670.61
2023-04-16T01:39:20.397Z,101672.55
2023-04-16T01:40:22.894Z,101672.05
2023-04-16T01:41:24.424Z,101667.65
2023-04-16T01:42:26.223Z,101669.38
2023-04-16T01:43:27.782Z,101668.84
2023-04-16T01:44:30.253Z,101672.18
2023-04-16T01:45:33.799Z,101668.32
2023-04-16T01:46:37.083Z,101670.88
2023-04-16T01:47:38.749Z,101666.70
2023-04-16T01:48:40.522Z,101669.52
2023-04-16T01:49:44.914Z,101666.80
2023-04-16T01:50:46.383Z,101664.77
2023-04-16T01:51:47.846Z,101667.58
2023-04-16T01:52:49.463Z,101666.34
2023-04-16T01:53:51.079Z,101664.08
2023-04-16T01:54:52.627Z,101666.64
2023-04-16T01:55:54.116Z,101666.23
2023-04-16T01:56:56.467Z,101665.23
2023-04-16T01:57:57.951Z,101673.23
2023-04-16T01:59:00.640Z,101669.02
2023-04-16T02:00:08.190Z,101669.70
2023-04-16T02:01:20.076Z,101668.45
2023-04-16T02:02:27.442Z,101668.48
2023-04-16T02:03:30.683Z,101670.89
2023-04-16T02:04:32.810Z,101668.86
2023-04-16T02:05:34.495Z,101668.69
2023-04-16T02:06:36.024Z,101666.19
2023-04-16T02:07:37.525Z,101668.78
2023-04-16T02:08:39.034Z,101669.55
2023-04-16T02:09:40.877Z,101670.29
2023-04-16T02:10:46.170Z,101670.29
2023-04-16T02:11:47.815Z,101668.33
2023-04-16T02:12:49.417Z,101668.62
2023-04-16T02:13:51.118Z,101672.73
2023-04-16T02:14:53.661Z,101673.00
2023-04-16T02:15:55.414Z,101672.66
2023-04-16T02:17:20.563Z,101669.81
2023-04-16T02:18:25.564Z,101669.63
2023-04-16T02:19:28.303Z,101666.88
2023-04-16T02:20:30.257Z,101667.41
2023-04-16T02:21:34.464Z,101667.78
2023-04-16T02:22:36.427Z,101667.58
2023-04-16T02:23:40.441Z,101666.56
2023-04-16T02:24:42.409Z,101669.39
2023-04-16T02:25:45.960Z,101667.67
2023-04-16T02:26:47.513Z,101665.65
2023-04-16T02:27:50.528Z,101665.67
2023-04-16T02:29:03.620Z,101668.72
2023-04-16T02:30:11.822Z,101667.23
2023-04-16T02:31:18.909Z,101665.61
2023-04-16T02:32:21.702Z,101670.09
2023-04-16T02:33:25.753Z,101670.22
2023-04-16T02:34:33.012Z,101671.96
2023-04-16T02:35:35.490Z,101670.11
2023-04-16T02:36:37.543Z,101672.59
2023-04-16T02:37:40.205Z,101668.04
2023-04-16T02:38:41.736Z,101670.91
2023-04-16T02:39:44.436Z,101672.15
2023-04-16T02:40:46.005Z,101672.76
2023-04-16T02:41:47.564Z,101669.98
2023-04-16T02:42:49.078Z,101669.33
2023-04-16T02:43:50.584Z,101674.08
2023-04-16T02:44:52.144Z,101673.09
2023-04-16T02:45:53.730Z,101670.79
2023-04-16T02:46:55.206Z,101671.09
2023-04-16T02:47:56.740Z,101672.89
2023-04-16T02:48:58.195Z,101676.46
2023-04-16T02:49:59.748Z,101674.52
2023-04-16T02:51:01.282Z,101676.63
2023-04-16T02:52:03.403Z,101675.21
2023-04-16T02:53:06.010Z,101676.06
2023-04-16T02:54:07.454Z,101677.60
2023-04-16T02:55:10.227Z,101675.39
2023-04-16T02:56:12.389Z,101681.40
2023-04-16T02:57:14.170Z,101675.16
2023-04-16T02:58:15.903Z,101676.73
2023-04-16T02:59:17.521Z,101676.13
2023-04-16T03:00:19.108Z,101678.14
2023-04-16T03:01:20.529Z,101680.60
2023-04-16T03:02:22.209Z,101681.37
2023-04-16T03:03:23.836Z,101679.10
2023-04-16T03:04:25.532Z,101681.80
2023-04-16T03:05:27.047Z,101680.70
2023-04-16T03:06:28.520Z,101684.41
2023-04-16T03:07:30.144Z,101681.30
2023-04-16T03:08:31.584Z,101682.60
2023-04-16T03:09:33.084Z,101682.58
2023-04-16T03:10:35.676Z,101683.09
2023-04-16T03:11:37.142Z,101686.81
2023-04-16T03:12:39.554Z,101686.29
2023-04-16T03:13:41.531Z,101684.39
2023-04-16T03:14:43.317Z,101682.84
2023-04-16T03:15:49.194Z,101685.79
2023-04-16T03:16:50.677Z,101685.46
2023-04-16T03:17:53.266Z,101687.83
2023-04-16T03:18:54.703Z,101687.66
2023-04-16T03:19:56.402Z,101688.52
2023-04-16T03:20:57.845Z,101689.42
2023-04-16T03:21:59.297Z,101684.05
2023-04-16T03:23:00.871Z,101687.29
2023-04-16T03:24:02.926Z,101690.13
2023-04-16T03:25:04.699Z,101689.95
2023-04-16T03:26:06.296Z,101688.34
2023-04-16T03:27:07.992Z,101686.48
2023-04-16T03:28:10.074Z,101687.02
2023-04-16T03:29:12.108Z,101687.05
2023-04-16T03:30:14.821Z,101688.56
2023-04-16T03:31:16.444Z,101688.42
2023-04-16T03:32:18.478Z,101690.48
2023-04-16T03:33:20.277Z,101690.49
2023-04-16T03:34:21.963Z,101690.66
2023-04-16T03:35:23.473Z,101691.95
2023-04-16T03:36:26.611Z,101687.55
2023-04-16T03:37:28.175Z,101692.10
2023-04-16T03:38:30.283Z,101691.59
2023-04-16T03:39:33.670Z,101690.89
2023-04-16T03:40:35.343Z,101691.92
2023-04-16T03:41:36.851Z,101692.49
2023-04-16T03:42:38.329Z,101691.87
2023-04-16T03:43:40.529Z,101692.42
2023-04-16T03:44:42.562Z,101696.56
2023-04-16T03:45:45.241Z,101695.02
2023-04-16T03:46:47.384Z,101699.46
2023-04-16T03:47:51.933Z,101700.77
2023-04-16T03:48:55.169Z,101701.04
2023-04-16T03:49:56.948Z,101703.84
2023-04-16T03:50:58.617Z,101702.30
2023-04-16T03:52:01.006Z,101703.13
2023-04-16T03:53:02.541Z,101701.34
2023-04-16T03:54:04.606Z,101704.14
2023-04-16T03:55:07.307Z,101702.16
2023-04-16T03:56:09.348Z,101704.15
2023-04-16T03:57:10.768Z,101702.76
2023-04-16T03:58:12.262Z,101703.19
2023-04-16T03:59:13.946Z,101700.53
2023-04-16T04:00:15.865Z,101703.66
2023-04-16T04:01:25.077Z,101706.50
2023-04-16T04:02:27.314Z,101706.66
2023-04-16T04:03:29.474Z,101709.23
2023-04-16T04:04:31.475Z,101707.53
2023-04-16T04:05:40.426Z,101707.98
2023-04-16T04:06:45.613Z,101707.34
2023-04-16T04:07:47.437Z,101708.58
2023-04-16T04:08:49.050Z,101713.02
2023-04-16T04:09:51.185Z,101713.35
2023-04-16T04:10:52.712Z,101714.32
2023-04-16T04:11:55.577Z,101716.65
2023-04-16T04:12:57.297Z,101717.55
2023-04-16T04:13:58.899Z,101713.57
2023-04-16T04:15:00.603Z,101717.13
2023-04-16T04:16:02.230Z,101721.65
2023-04-16T04:17:04.180Z,101720.75
2023-04-16T04:18:05.859Z,101719.55
2023-04-16T04:19:07.664Z,101721.54
2023-04-16T04:20:10.229Z,101720.54
2023-04-16T04:21:12.085Z,101722.25
2023-04-16T04:22:13.620Z,101726.55
2023-04-16T04:23:15.569Z,101726.06
2023-04-16T04:24:16.999Z,101727.96
2023-04-16T04:25:21.082Z,101725.31
2023-04-16T04:26:22.810Z,101728.12
2023-04-16T04:27:24.365Z,101725.72
2023-04-16T04:28:25.889Z,101729.29
2023-04-16T04:29:27.302Z,101730.78
2023-04-16T04:30:28.964Z,101733.60
2023-04-16T04:31:30.609Z,101729.00
2023-04-16T04:32:32.130Z,101734.64
2023-04-16T04:33:34.798Z,101733.84
2023-04-16T04:34:36.843Z,101733.64
2023-04-16T04:35:38.786Z,101731.11
2023-04-16T04:36:40.407Z,101731.60
2023-04-16T04:37:42.002Z,101730.81
2023-04-16T04:38:49.321Z,101734.30
2023-04-16T04:39:51.281Z,101734.55
2023-04-16T04:40:53.236Z,101734.70
2023-04-16T04:41:56.795Z,101734.50
2023-04-16T04:42:58.385Z,101735.14
2023-04-16T04:43:59.977Z,101736.52
2023-04-16T04:45:01.419Z,101735.36
2023-04-16T04:46:04.222Z,101740.30
2023-04-16T04:47:06.291Z,101737.81
2023-04-16T04:48:07.852Z,101738.95
2023-04-16T04:49:09.906Z,101738.84
2023-04-16T04:50:11.640Z,101741.41
2023-04-16T04:51:13.119Z,101743.63
2023-04-16T04:52:16.220Z,101742.95
2023-04-16T04:53:17.809Z,101741.85
2023-04-16T04:54:19.373Z,101744.89
2023-04-16T04:55:20.846Z,101745.10
2023-04-16T04:56:22.644Z,101746.98
2023-04-16T04:57:24.101Z,101750.44
2023-04-16T04:58:28.030Z,101747.00
2023-04-16T04:59:29.541Z,101747.60
2023-04-16T05:00:32.332Z,101746.58
2023-04-16T05:01:34.886Z,101749.30
2023-04-16T05:02:36.832Z,101749.00
2023-04-16T05:03:38.708Z,101745.13
2023-04-16T05:04:40.599Z,101747.77
2023-04-16T05:05:42.189Z,101748.05
2023-04-16T05:06:43.967Z,101742.83
2023-04-16T05:07:45.504Z,101749.56
2023-04-16T05:08:47.015Z,101747.23
2023-04-16T05:09:48.546Z,101748.06
2023-04-16T05:10:50.086Z,101744.76
2023-04-16T05:11:51.703Z,101746.38
2023-04-16T05:12:53.208Z,101749.91
2023-04-16T05:13:54.727Z,101748.77
2023-04-16T05:14:56.154Z,101747.52
2023-04-16T05:15:58.079Z,101751.24
2023-04-16T05:16:59.734Z,101753.13
2023-04-16T05:18:01.419Z,101753.59
2023-04-16T05:19:03.608Z,101751.65
2023-04-16T05:20:06.326Z,101753.80
2023-04-16T05:21:07.850Z,101754.23
2023-04-16T05:22:09.598Z,101759.02
2023-04-16T05:23:11.110Z,101756.59
2023-04-16T05:24:14.785Z,101759.41
2023-04-16T05:25:16.836Z,101759.13
2023-04-16T05:26:18.417Z,101763.40
2023-04-16T05:27:20.337Z,101761.42
2023-04-16T05:28:21.888Z,101761.27
2023-04-16T05:29:23.431Z,101761.70
2023-04-16T05:30:24.968Z,101766.23
2023-04-16T05:31:26.476Z,101767.02
2023-04-16T05:32:28.086Z,101766.42
2023-04-16T05:33:29.810Z,101769.22
2023-04-16T05:34:31.263Z,101771.27
2023-04-16T05:35:33.786Z,101774.48
2023-04-16T05:36:35.229Z,101770.98
2023-04-16T05:37:37.026Z,101774.39
2023-04-16T05:38:38.484Z,101771.13
2023-04-16T05:39:40.032Z,101775.69
2023-04-16T05:40:41.519Z,101775.73
2023-04-16T05:41:43.128Z,101776.88
2023-04-16T05:42:44.828Z,101775.28
2023-04-16T05:43:46.248Z,101779.58
2023-04-16T05:44:47.739Z,101779.77
2023-04-16T05:45:49.210Z,101783.58
2023-04-16T05:46:51.185Z,101781.23
2023-04-16T05:47:52.838Z,101784.94
2023-04-16T05:48:54.403Z,101783.80
2023-04-16T05:49:55.840Z,101786.38
2023-04-16T05:50:57.339Z,101788.81
2023-04-16T05:51:58.944Z,101786.02
2023-04-16T05:53:02.584Z,101788.91
2023-04-16T05:54:04.080Z,101788.71
2023-04-16T05:55:06.573Z,101789.19
2023-04-16T05:56:08.227Z,101785.83
2023-04-16T05:57:10.056Z,101790.89
2023-04-16T05:58:11.636Z,101788.46
2023-04-16T05:59:13.122Z,101791.88
2023-04-16T06:00:14.766Z,101787.38
2023-04-16T06:01:17.650Z,101789.28
2023-04-16T06:02:19.559Z,101791.82
2023-04-16T06:03:21.161Z,101791.91
2023-04-16T06:04:22.847Z,101796.48
2023-04-16T06:05:26.306Z,101793.78
2023-04-16T06:06:27.896Z,101792.99
2023-04-16T06:07:29.924Z,101798.39
2023-04-16T06:08:31.618Z,101796.33
2023-04-16T06:09:33.161Z,101797.53
2023-04-16T06:10:34.613Z,101796.18
2023-04-16T06:11:36.544Z,101799.34
2023-04-16T06:12:38.095Z,101794.50
2023-04-16T06:13:39.693Z,101799.60
2023-04-16T06:14:41.291Z,101799.13
2023-04-16T06:15:42.952Z,101803.46
2023-04-16T06:16:44.928Z,101797.76
2023-04-16T06:17:46.757Z,101797.16
2023-04-16T06:18:48.402Z,101801.69
2023-04-16T06:19:49.984Z,101801.38
2023-04-16T06:20:51.522Z,101801.17
2023-04-16T06:21:53.520Z,101804.84
2023-04-16T06:22:55.574Z,101805.17
2023-04-16T06:23:57.304Z,101804.21
2023-04-16T06:24:58.830Z,101805.73
2023-04-16T06:26:00.517Z,101802.02
2023-04-16T06:27:02.456Z,101804.73
2023-04-16T06:28:04.106Z,101807.77
2023-04-16T06:29:05.658Z,101809.54
2023-04-16T06:30:12.615Z,101808.38
2023-04-16T06:31:14.099Z,101809.73
2023-04-16T06:32:16.715Z,101809.38
2023-04-16T06:33:18.561Z,101809.95
2023-04-16T06:34:20.325Z,101813.31
2023-04-16T06:35:22.198Z,101813.71
2023-04-16T06:36:23.817Z,101817.48
2023-04-16T06:37:25.388Z,101816.59
2023-04-16T06:38:27.044Z,101816.64
2023-04-16T06:39:28.571Z,101821.66
2023-04-16T06:40:30.124Z,101816.21
2023-04-16T06:41:31.693Z,101821.34
2023-04-16T06:42:33.237Z,101823.55
2023-04-16T06:43:35.189Z,101821.21
2023-04-16T06:44:36.665Z,101821.25
2023-04-16T06:45:43.637Z,101822.85
2023-04-16T06:46:45.505Z,101824.16
2023-04-16T06:47:47.447Z,101823.73
2023-04-16T06:48:48.926Z,101825.54
2023-04-16T06:49:50.478Z,101824.14
2023-04-16T06:50:51.994Z,101825.60
2023-04-16T06:51:53.541Z,101826.73
2023-04-16T06:52:55.532Z,101828.14
2023-04-16T06:53:57.045Z,101827.84
2023-04-16T06:54:58.648Z,101831.55
2023-04-16T06:56:00.102Z,101828.91
2023-04-16T06:57:01.599Z,101828.38
2023-04-16T06:58:03.096Z,101829.34
2023-04-16T06:59:04.870Z,101833.05
2023-04-16T07:00:07.333Z,101828.89
2023-04-16T07:01:09.525Z,101827.63
2023-04-16T07:02:11.623Z,101832.59
2023-04-16T07:03:13.848Z,101832.45
2023-04-16T07:04:15.799Z,101831.63
2023-04-16T07:05:17.364Z,101831.58
2023-04-16T07:06:19.036Z,101829.64
2023-04-16T07:07:20.794Z,101830.51
2023-04-16T07:08:22.257Z,101829.21
2023-04-16T07:09:24.357Z,101828.19
2023-04-16T07:10:26.028Z,101830.39
2023-04-16T07:11:28.230Z,101829.35
2023-04-16T07:12:30.810Z,101832.77
2023-04-16T07:13:32.608Z,101831.27
2023-04-16T07:14:34.468Z,101836.48
2023-04-16T07:15:36.208Z,101835.73
2023-04-16T07:16:37.974Z,101838.16
2023-04-16T07:17:39.841Z,101838.67
2023-04-16T07:18:41.724Z,101837.33
2023-04-16T07:19:43.680Z,101839.55
2023-04-16T07:20:45.224Z,101839.95
2023-04-16T07:21:46.673Z,101839.26
2023-04-16T07:22:48.984Z,101837.50
2023-04-16T07:23:50.513Z,101839.58
2023-04-16T07:24:52.024Z,101843.04
2023-04-16T07:25:53.751Z,101841.51
2023-04-16T07:26:55.217Z,101841.14
2023-04-16T07:27:56.942Z,101842.95
2023-04-16T07:28:58.871Z,101842.44
2023-04-16T07:30:00.953Z,101843.63
2023-04-16T07:31:02.743Z,101839.65
2023-04-16T07:32:04.713Z,101842.02
2023-04-16T07:33:06.507Z,101842.83
2023-04-16T07:34:08.181Z,101844.56
2023-04-16T07:35:09.797Z,101844.14
2023-04-16T07:36:11.700Z,101847.14
2023-04-16T07:37:13.200Z,101845.88
2023-04-16T07:38:15.644Z,101846.19
2023-04-16T07:39:17.185Z,101848.45
2023-04-16T07:40:18.784Z,101850.56
2023-04-16T07:41:20.733Z,101852.20
2023-04-16T07:42:22.661Z,101849.69
2023-04-16T07:43:24.102Z,101853.45
2023-04-16T07:44:26.076Z,101850.44
2023-04-16T07:45:27.874Z,101855.48
2023-04-16T07:46:39.332Z,101852.55
2023-04-16T07:47:45.504Z,101855.75
2023-04-16T07:48:47.195Z,101855.10
2023-04-16T07:49:50.129Z,101854.22
2023-04-16T07:50:51.900Z,101853.66
2023-04-16T07:51:53.438Z,101855.29
2023-04-16T07:52:55.024Z,101857.80
2023-04-16T07:53:56.516Z,101855.48
2023-04-16T07:54:57.940Z,101861.02
2023-04-16T07:55:59.497Z,101859.42
2023-04-16T07:57:01.370Z,101859.65
2023-04-16T07:58:02.825Z,101858.04
2023-04-16T07:59:18.477Z,101859.12
2023-04-16T08:00:23.217Z,101861.36
2023-04-16T08:01:25.350Z,101863.95
2023-04-16T08:02:27.434Z,101861.77
2023-04-16T08:03:29.605Z,101863.39
2023-04-16T08:04:31.684Z,101865.80
2023-04-16T08:05:33.584Z,101867.05
2023-04-16T08:06:35.550Z,101866.02
2023-04-16T08:07:37.751Z,101866.32
2023-04-16T08:08:39.230Z,101864.08
2023-04-16T08:09:49.046Z,101863.42
2023-04-16T08:10:55.071Z,101861.62
2023-04-16T08:11:56.885Z,101864.52
2023-04-16T08:13:00.903Z,101865.34
2023-04-16T08:14:02.789Z,101866.65
2023-04-16T08:15:05.305Z,101864.53
2023-04-16T08:16:07.327Z,101868.37
2023-04-16T08:17:09.417Z,101870.27
2023-04-16T08:18:14.883Z,101872.16
2023-04-16T08:19:16.828Z,101871.71
2023-04-16T08:20:19.328Z,101874.11
2023-04-16T08:21:21.338Z,101875.16
2023-04-16T08:22:23.247Z,101872.23
2023-04-16T08:23:25.479Z,101875.96
2023-04-16T08:24:27.292Z,101873.30
2023-04-16T08:25:28.990Z,101873.03
2023-04-16T08:26:30.814Z,101876.73
2023-04-16T08:27:32.505Z,101876.77
2023-04-16T08:28:34.390Z,101880.80
2023-04-16T08:29:35.995Z,101878.33
2023-04-16T08:30:37.621Z,101879.25
2023-04-16T08:31:39.438Z,101881.16
2023-04-16T08:32:42.045Z,101879.67
2023-04-16T08:33:43.820Z,101884.36
2023-04-16T08:34:45.673Z,101882.23
2023-04-16T08:35:47.310Z,101886.45
2023-04-16T08:36:48.894Z,101882.84
2023-04-16T08:37:50.730Z,101885.00
2023-04-16T08:38:52.681Z,101885.73
2023-04-16T08:39:54.382Z,101883.39
2023-04-16T08:41:02.175Z,101882.06
2023-04-16T08:42:05.689Z,101882.27
2023-04-16T08:43:14.451Z,101882.15
2023-04-16T08:44:25.708Z,101883.59
2023-04-16T08:45:27.531Z,101879.54
2023-04-16T08:46:29.484Z,101881.47
2023-04-16T08:47:34.335Z,101882.27
2023-04-16T08:48:36.900Z,101881.58
2023-04-16T08:49:44.310Z,101884.11
2023-04-16T08:50:46.513Z,101888.70
2023-04-16T08:51:52.171Z,101890.16
2023-04-16T08:52:58.521Z,101890.42
2023-04-16T08:54:04.092Z,101892.33
2023-04-16T08:55:12.775Z,101887.61
2023-04-16T08:56:16.277Z,101893.36
2023-04-16T08:57:20.343Z,101892.67
2023-04-16T08:58:22.159Z,101894.04
2023-04-16T08:59:25.455Z,101895.41
2023-04-16T09:00:30.948Z,101897.59
2023-04-16T09:01:33.328Z,101899.31
2023-04-16T09:02:35.445Z,101897.88
2023-04-16T09:03:37.415Z,101899.74
2023-04-16T09:04:40.763Z,101899.27
2023-04-16T09:05:43.403Z,101901.29
2023-04-16T09:06:45.620Z,101900.81
2023-04-16T09:07:47.896Z,101906.48
2023-04-16T09:08:50.282Z,101898.91
2023-04-16T09:09:53.109Z,101899.67
2023-04-16T09:10:58.815Z,101906.41
2023-04-16T09:12:00.565Z,101907.80
2023-04-16T09:13:02.171Z,101907.23
2023-04-16T09:14:04.279Z,101905.84
2023-04-16T09:15:06.665Z,101907.92
2023-04-16T09:16:09.187Z,101913.45
2023-04-16T09:17:13.526Z,101911.79
2023-04-16T09:18:15.163Z,101909.98
2023-04-16T09:19:16.787Z,101907.63
2023-04-16T09:20:19.744Z,101909.70
2023-04-16T09:21:24.022Z,101912.17
2023-04-16T09:22:25.664Z,101909.09
2023-04-16T09:23:27.722Z,101914.23
2023-04-16T09:24:29.406Z,101915.58
2023-04-16T09:25:34.440Z,101915.16
2023-04-16T09:26:36.264Z,101914.66
2023-04-16T09:27:38.746Z,101915.92
2023-04-16T09:28:45.253Z,101916.42
2023-04-16T09:29:46.777Z,101915.05
2023-04-16T09:30:48.374Z,101917.92
2023-04-16T09:32:02.881Z,101919.50
2023-04-16T09:33:23.765Z,101923.79
2023-04-16T09:34:25.289Z,101923.91
2023-04-16T09:35:26.771Z,101924.81
2023-04-16T09:36:28.679Z,101925.14
2023-04-16T09:37:30.947Z,101923.30
2023-04-16T09:38:49.422Z,101928.56
2023-04-16T09:39:57.949Z,101929.94
2023-04-16T09:41:07.680Z,101925.09
2023-04-16T09:42:10.004Z,101930.60
2023-04-16T09:43:15.752Z,101930.97
2023-04-16T09:44:17.215Z,101932.81
2023-04-16T09:45:18.793Z,101932.60
2023-04-16T09:46:20.477Z,101933.15
2023-04-16T09:47:23.350Z,101930.00
2023-04-16T09:48:29.413Z,101928.90
2023-04-16T09:49:34.379Z,101930.18
2023-04-16T09:50:35.784Z,101929.52
2023-04-16T09:51:38.068Z,101932.92
2023-04-16T09:52:39.620Z,101933.48
2023-04-16T09:53:41.445Z,101936.33
2023-04-16T09:54:50.687Z,101936.55
2023-04-16T09:55:56.304Z,101936.69
2023-04-16T09:57:00.615Z,101939.44
2023-04-16T09:58:02.167Z,101942.70
2023-04-16T09:59:03.745Z,101941.70
2023-04-16T10:00:08.401Z,101943.41
2023-04-16T10:01:11.896Z,101945.27
2023-04-16T10:02:14.589Z,101944.20
2023-04-16T10:03:17.830Z,101944.39
2023-04-16T10:04:21.611Z,101945.16
2023-04-16T10:05:25.626Z,101945.85
2023-04-16T10:06:28.822Z,101946.28
2023-04-16T10:07:34.922Z,101950.36
2023-04-16T10:08:36.535Z,101947.94
2023-04-16T10:09:38.702Z,101947.66
2023-04-16T10:10:40.924Z,101953.20
2023-04-16T10:11:42.537Z,101954.17
2023-04-16T10:12:44.094Z,101950.96
2023-04-16T10:13:45.764Z,101952.49
2023-04-16T10:14:48.938Z,101951.73
2023-04-16T10:15:51.855Z,101955.67
2023-04-16T10:16:55.447Z,101954.80
2023-04-16T10:17:57.541Z,101954.21
2023-04-16T10:18:59.565Z,101952.95
2023-04-16T10:20:02.621Z,101954.90
2023-04-16T10:21:05.592Z,101952.81
2023-04-16T10:22:08.704Z,101956.59
2023-04-16T10:23:11.670Z,101955.77
2023-04-16T10:24:16.062Z,101954.54
2023-04-16T10:25:17.981Z,101953.81
2023-04-16T10:26:20.702Z,101955.66
2023-04-16T10:27:22.271Z,101958.26
2023-04-16T10:28:24.482Z,101957.26
2023-04-16T10:29:31.053Z,101959.14
2023-04-16T10:30:33.250Z,101958.64
2023-04-16T10:31:37.988Z,101956.10
2023-04-16T10:32:40.934Z,101960.31
2023-04-16T10:33:43.655Z,101959.55
2023-04-16T10:34:45.718Z,101958.53
2023-04-16T10:35:57.613Z,101956.14
2023-04-16T10:37:06.657Z,101955.46
2023-04-16T10:38:27.623Z,101956.21
2023-04-16T10:39:29.179Z,101952.39
2023-04-16T10:40:30.886Z,101952.77
2023-04-16T10:41:33.724Z,101956.63
2023-04-16T10:42:37.486Z,101959.45
2023-04-16T10:43:47.411Z,101956.17
2023-04-16T10:44:49.016Z,101956.71
2023-04-16T10:45:50.793Z,101954.78
2023-04-16T10:46:54.777Z,101957.52
2023-04-16T10:47:58.057Z,101963.58
2023-04-16T10:49:01.613Z,101960.65
2023-04-16T10:50:15.590Z,101963.20
2023-04-16T10:51:27.974Z,101965.53
2023-04-16T10:52:29.418Z,101971.30
2023-04-16T10:53:30.838Z,101970.27
2023-04-16T10:54:35.759Z,101971.59
2023-04-16T10:55:40.164Z,101972.77
2023-04-16T10:56:45.066Z,101972.57
2023-04-16T10:57:49.168Z,101975.85
2023-04-16T10:58:53.234Z,101977.34
2023-04-16T10:59:54.699Z,101978.61
2023-04-16T11:01:00.558Z,101980.73
2023-04-16T11:02:08.682Z,101980.52
2023-04-16T11:03:11.101Z,101982.36
2023-04-16T11:04:25.093Z,101983.60
2023-04-16T11:05:46.282Z,101984.23
2023-04-16T11:07:03.624Z,101985.61
2023-04-16T11:08:13.781Z,101987.02
2023-04-16T11:09:50.948Z,101988.48
2023-04-16T11:10:53.665Z,101991.98
2023-04-16T11:11:55.714Z,101989.58
2023-04-16T11:12:57.381Z,101991.38
2023-04-16T11:14:00.584Z,101994.63
2023-04-16T11:15:12.762Z,101990.13
2023-04-16T11:16:15.815Z,101991.77
2023-04-16T11:17:18.638Z,101993.14
2023-04-16T11:18:20.133Z,101993.45
2023-04-16T11:19:22.114Z,101995.61
2023-04-16T11:20:26.021Z,101996.05
2023-04-16T11:21:28.075Z,101996.23
2023-04-16T11:22:29.663Z,101998.13
2023-04-16T11:23:45.049Z,101998.70
2023-04-16T11:24:47.239Z,101999.60
2023-04-16T11:25:55.196Z,101998.79
2023-04-16T12:11:16.110Z,102021.77
2023-04-16T12:12:31.627Z,102023.98
2023-04-16T12:13:39.126Z,102023.13
2023-04-16T12:14:49.686Z,102021.78
2023-04-16T12:15:53.007Z,102024.05
2023-04-16T12:16:55.253Z,102024.10
2023-04-16T12:18:07.508Z,102025.36
2023-04-16T12:19:11.914Z,102024.73
2023-04-16T12:20:15.132Z,102024.76
2023-04-16T12:21:16.930Z,102027.20
2023-04-16T12:22:36.059Z,102025.96
2023-04-16T12:23:38.736Z,102026.79
2023-04-16T12:24:40.144Z,102029.21
2023-04-16T12:25:42.411Z,102032.85
2023-04-16T12:26:46.548Z,102033.34
2023-04-16T12:27:55.269Z,102033.67
2023-04-16T12:29:14.150Z,102035.23
2023-04-16T12:30:17.511Z,102037.49
2023-04-16T12:31:36.606Z,102041.93
2023-04-16T12:32:41.061Z,102039.70
2023-04-16T12:33:42.485Z,102043.17
2023-04-16T12:34:50.980Z,102038.42
2023-04-16T12:35:52.483Z,102039.45
2023-04-16T12:37:08.885Z,102035.72
2023-04-16T12:38:11.356Z,102042.13
2023-04-16T12:39:14.557Z,102036.83
2023-04-16T12:40:16.253Z,102037.26
2023-04-16T12:41:17.711Z,102034.15
2023-04-16T12:42:20.741Z,102033.27
2023-04-16T12:43:22.807Z,102035.23
2023-04-16T12:44:27.293Z,102032.17
2023-04-16T12:45:28.933Z,102033.59